createdAt,value
2022-10-09T00:01:11.570Z,99477.13
2022-10-09T00:03:40.028Z,99482.50
2022-10-09T00:06:33.226Z,99473.44
2022-10-09T00:09:02.216Z,99483.53
2022-10-09T00:11:30.765Z,99480.03
2022-10-09T00:13:58.546Z,99468.47
2022-10-09T00:16:25.961Z,99473.66
2022-10-09T00:18:53.379Z,99471.34
2022-10-09T00:21:22.997Z,99471.56
2022-10-09T00:23:51.034Z,99462.69
2022-10-09T00:26:18.194Z,99458.16
2022-10-09T00:28:45.961Z,99453.63
2022-10-09T00:31:14.054Z,99456.72
2022-10-09T00:33:41.026Z,99447.03
2022-10-09T00:36:11.823Z,99449.50
2022-10-09T00:38:39.576Z,99447.84
2022-10-09T00:41:07.916Z,99448.47
2022-10-09T00:43:47.276Z,99448.69
2022-10-09T00:46:26.612Z,99440.44
2022-10-09T00:49:07.709Z,99446.03
2022-10-09T00:51:34.978Z,99435.09
2022-10-09T00:54:04.057Z,99444.78
2022-10-09T00:56:31.470Z,99435.47
2022-10-09T00:58:58.720Z,99436.09
2022-10-09T01:01:25.987Z,99428.47
2022-10-09T01:03:53.007Z,99432.97
2022-10-09T01:06:32.739Z,99427.44
2022-10-09T01:09:08.639Z,99429.28
2022-10-09T01:11:44.313Z,99439.81
2022-10-09T01:14:17.404Z,99437.31
2022-10-09T01:17:00.461Z,99436.91
2022-10-09T01:20:04.484Z,99437.31
2022-10-09T01:23:15.434Z,99437.09
2022-10-09T01:25:50.721Z,99431.72
2022-10-09T01:28:19.455Z,99436.22
2022-10-09T01:30:50.181Z,99424.69
2022-10-09T01:33:17.713Z,99429.22
2022-10-09T01:35:45.158Z,99426.75
2022-10-09T01:38:12.399Z,99426.75
2022-10-09T01:40:39.503Z,99420.38
2022-10-09T01:43:06.480Z,99426.31
2022-10-09T01:45:39.222Z,99415.00
2022-10-09T01:48:07.378Z,99428.63
2022-10-09T01:50:41.085Z,99429.22
2022-10-09T01:53:10.821Z,99416.44
2022-10-09T01:55:45.202Z,99428.19
2022-10-09T01:58:19.465Z,99421.56
2022-10-09T02:00:53.827Z,99415.81
2022-10-09T02:03:21.173Z,99413.75
2022-10-09T02:05:49.896Z,99411.25
2022-10-09T02:08:19.101Z,99410.63
2022-10-09T02:10:47.478Z,99409.00
2022-10-09T02:13:14.609Z,99406.09
2022-10-09T02:15:48.664Z,99406.72
2022-10-09T02:18:19.611Z,99397.44
2022-10-09T02:20:53.819Z,99399.31
2022-10-09T02:23:23.199Z,99403.19
2022-10-09T02:25:50.623Z,99406.28
2022-10-09T02:28:17.739Z,99401.16
2022-10-09T02:30:55.668Z,99396.44
2022-10-09T02:33:28.250Z,99390.00
2022-10-09T02:35:55.447Z,99396.59
2022-10-09T02:38:22.407Z,99400.13
2022-10-09T02:40:49.545Z,99392.91
2022-10-09T02:43:16.588Z,99387.34
2022-10-09T02:45:43.785Z,99383.84
2022-10-09T02:48:13.234Z,99384.66
2022-10-09T02:50:40.286Z,99379.31
2022-10-09T02:53:07.203Z,99382.59
2022-10-09T02:55:34.174Z,99370.25
2022-10-09T02:58:01.147Z,99373.34
2022-10-09T03:00:28.313Z,99372.53
2022-10-09T03:02:55.512Z,99368.41
2022-10-09T03:05:22.665Z,99364.09
2022-10-09T03:07:51.740Z,99369.63
2022-10-09T03:10:20.442Z,99359.13
2022-10-09T03:12:49.368Z,99355.00
2022-10-09T03:15:16.943Z,99340.56
2022-10-09T03:17:43.882Z,99351.72
2022-10-09T03:20:13.748Z,99343.06
2022-10-09T03:22:40.700Z,99348.59
2022-10-09T03:25:08.036Z,99352.09
2022-10-09T03:27:36.108Z,99344.06
2022-10-09T03:30:03.937Z,99349.41
2022-10-09T03:32:32.448Z,99350.03
2022-10-09T03:34:59.660Z,99340.16
2022-10-09T03:37:26.526Z,99343.88
2022-10-09T03:39:56.312Z,99335.03
2022-10-09T03:42:23.256Z,99337.09
2022-10-09T03:44:50.330Z,99339.78
2022-10-09T03:47:17.641Z,99332.75
2022-10-09T03:49:44.662Z,99329.06
2022-10-09T03:52:11.680Z,99327.22
2022-10-09T03:54:38.610Z,99327.41
2022-10-09T03:57:06.400Z,99313.81
2022-10-09T03:59:33.287Z,99315.69
2022-10-09T04:02:04.463Z,99311.75
2022-10-09T04:04:31.504Z,99316.47
2022-10-09T04:06:58.365Z,99308.44
2022-10-09T04:09:25.412Z,99310.72
2022-10-09T04:11:52.600Z,99320.00
2022-10-09T04:14:19.472Z,99313.22
2022-10-09T04:16:46.531Z,99307.44
2022-10-09T04:19:17.751Z,99306.84
2022-10-09T04:21:44.813Z,99299.63
2022-10-09T04:24:11.769Z,99300.63
2022-10-09T04:26:43.055Z,99293.22
2022-10-09T04:29:11.429Z,99306.84
2022-10-09T04:31:38.558Z,99292.00
2022-10-09T04:34:07.960Z,99292.00
2022-10-09T04:36:34.947Z,99294.91
2022-10-09T04:39:01.991Z,99292.22
2022-10-09T04:41:38.119Z,99289.53
2022-10-09T04:44:08.585Z,99289.31
2022-10-09T04:46:38.856Z,99288.31
2022-10-09T04:49:05.811Z,99282.13
2022-10-09T04:51:32.998Z,99289.72
2022-10-09T04:54:00.902Z,99285.81
2022-10-09T04:56:28.135Z,99278.63
2022-10-09T04:58:55.083Z,99286.22
2022-10-09T05:01:24.359Z,99287.06
2022-10-09T05:03:53.114Z,99278.00
2022-10-09T05:06:23.760Z,99273.88
2022-10-09T05:08:51.362Z,99270.59
2022-10-09T05:11:23.655Z,99280.25
2022-10-09T05:13:53.413Z,99280.41
2022-10-09T05:16:26.677Z,99275.06
2022-10-09T05:18:57.903Z,99277.28
2022-10-09T05:21:25.992Z,99269.19
2022-10-09T05:23:56.352Z,99284.41
2022-10-09T05:26:25.121Z,99277.56
2022-10-09T05:28:52.453Z,99270.03
2022-10-09T05:31:27.356Z,99282.56
2022-10-09T05:33:56.302Z,99278.41
2022-10-09T05:36:23.234Z,99266.94
2022-10-09T05:38:50.251Z,99269.97
2022-10-09T05:41:19.239Z,99267.19
2022-10-09T05:43:47.779Z,99272.03
2022-10-09T05:46:20.198Z,99273.13
2022-10-09T05:48:52.640Z,99260.16
2022-10-09T05:51:30.606Z,99246.53
2022-10-09T05:53:58.088Z,99252.13
2022-10-09T05:56:27.436Z,99242.88
2022-10-09T05:59:05.176Z,99245.19
2022-10-09T06:01:34.766Z,99251.66
2022-10-09T06:04:02.734Z,99253.00
2022-10-09T06:06:32.594Z,99254.31
2022-10-09T06:09:07.193Z,99261.84
2022-10-09T06:11:36.584Z,99252.47
2022-10-09T06:14:06.151Z,99253.41
2022-10-09T06:16:38.945Z,99262.09
2022-10-09T06:19:07.832Z,99253.31
2022-10-09T06:21:34.957Z,99261.16
2022-10-09T06:24:03.046Z,99256.16
2022-10-09T06:26:31.313Z,99256.72
2022-10-09T06:29:00.745Z,99262.63
2022-10-09T06:31:30.236Z,99257.03
2022-10-09T06:34:00.031Z,99253.91
2022-10-09T06:36:29.607Z,99249.56
2022-10-09T06:38:58.050Z,99249.47
2022-10-09T06:41:26.621Z,99242.09
2022-10-09T06:43:58.470Z,99251.81
2022-10-09T06:49:32.804Z,99245.00
2022-10-09T06:51:59.806Z,99247.81
2022-10-09T06:54:26.715Z,99242.41
2022-10-09T06:56:55.376Z,99247.69
2022-10-09T06:59:22.449Z,99251.06
2022-10-09T07:01:49.425Z,99244.22
2022-10-09T07:04:23.767Z,99246.31
2022-10-09T07:06:51.007Z,99256.72
2022-10-09T07:09:18.036Z,99248.00
2022-10-09T07:11:46.974Z,99237.56
2022-10-09T07:14:16.104Z,99230.59
2022-10-09T07:16:47.581Z,99230.47
2022-10-09T07:19:17.685Z,99228.84
2022-10-09T07:21:47.218Z,99220.53
2022-10-09T07:24:15.275Z,99220.38
2022-10-09T07:26:44.774Z,99221.41
2022-10-09T07:29:15.113Z,99211.13
2022-10-09T07:31:42.031Z,99197.53
2022-10-09T07:34:09.015Z,99212.22
2022-10-09T07:36:40.601Z,99211.09
2022-10-09T07:39:07.653Z,99201.09
2022-10-09T07:41:34.864Z,99202.66
2022-10-09T07:44:01.776Z,99214.00
2022-10-09T07:46:33.243Z,99204.91
2022-10-09T07:49:02.063Z,99208.97
2022-10-09T07:51:30.152Z,99200.16
2022-10-09T07:53:58.005Z,99198.53
2022-10-09T07:56:29.166Z,99188.66
2022-10-09T07:59:13.316Z,99194.19
2022-10-09T08:01:42.130Z,99201.97
2022-10-09T08:04:10.200Z,99191.63
2022-10-09T08:06:37.247Z,99200.63
2022-10-09T08:09:05.892Z,99195.41
2022-10-09T08:14:19.308Z,99186.28
2022-10-09T08:16:47.123Z,99192.78
2022-10-09T08:19:14.001Z,99184.28
2022-10-09T08:21:43.713Z,99199.84
2022-10-09T08:24:13.245Z,99187.91
2022-10-09T08:26:40.656Z,99178.13
2022-10-09T08:29:09.776Z,99182.13
2022-10-09T08:31:37.703Z,99175.25
2022-10-09T08:34:04.745Z,99189.03
2022-10-09T08:36:34.198Z,99183.84
2022-10-09T08:39:01.359Z,99181.19
2022-10-09T08:41:58.503Z,99188.88
2022-10-09T08:44:32.123Z,99174.19
2022-10-09T08:47:08.255Z,99177.16
2022-10-09T08:49:57.024Z,99195.75
2022-10-09T08:52:41.777Z,99183.13
2022-10-09T08:55:31.235Z,99184.59
2022-10-09T08:58:04.544Z,99169.09
2022-10-09T09:00:46.350Z,99145.69
2022-10-09T09:03:48.752Z,99163.59
2022-10-09T09:07:19.129Z,99192.84
2022-10-09T09:15:53.285Z,99169.72
2022-10-09T09:18:51.065Z,99207.28
2022-10-09T09:21:38.862Z,99168.84
2022-10-09T09:24:14.130Z,99156.50
2022-10-09T09:26:51.903Z,99164.81
2022-10-09T09:29:23.344Z,99153.06
2022-10-09T09:31:54.105Z,99163.56
2022-10-09T09:34:41.404Z,99159.16
2022-10-09T09:37:11.656Z,99161.25
2022-10-09T09:42:27.934Z,99140.28
2022-10-09T09:45:04.531Z,99149.47
2022-10-09T09:47:41.364Z,99153.53
2022-10-09T09:50:23.312Z,99157.41
2022-10-09T09:52:56.258Z,99149.38
2022-10-09T09:55:25.667Z,99159.25
2022-10-09T09:57:52.840Z,99151.34
2022-10-09T10:00:30.237Z,99145.88
2022-10-09T10:03:11.463Z,99143.63
2022-10-09T10:05:39.480Z,99118.84
2022-10-09T10:08:25.826Z,99103.72
2022-10-09T10:10:55.360Z,99099.19
2022-10-09T10:13:31.082Z,99126.50
2022-10-09T10:15:58.524Z,99119.34
2022-10-09T10:18:28.852Z,99108.31
2022-10-09T10:20:57.854Z,99115.19
2022-10-09T10:23:40.990Z,99103.88
2022-10-09T10:26:25.594Z,99132.00
2022-10-09T10:29:17.310Z,99113.59
2022-10-09T10:31:51.531Z,99135.56
2022-10-09T10:34:33.173Z,99103.88
2022-10-09T10:37:05.545Z,99100.91
2022-10-09T10:40:16.619Z,99105.28
2022-10-09T10:42:57.518Z,99109.09
2022-10-09T10:45:51.474Z,99105.47
2022-10-09T10:48:39.328Z,99098.06
2022-10-09T10:51:31.343Z,99105.38
2022-10-09T10:54:16.512Z,99091.25
2022-10-09T10:56:47.966Z,99120.91
2022-10-09T10:59:41.575Z,99096.63
2022-10-09T11:02:33.118Z,99089.03
2022-10-09T11:05:47.368Z,99068.56
2022-10-09T11:08:31.329Z,99078.16
2022-10-09T11:11:25.743Z,99068.03
2022-10-09T11:14:08.923Z,99067.19
2022-10-09T11:16:53.146Z,99047.97
2022-10-09T11:19:26.289Z,99073.47
2022-10-09T11:22:03.447Z,99068.09
2022-10-09T11:24:58.512Z,99060.34
2022-10-09T11:28:11.617Z,99061.47
2022-10-09T11:30:46.442Z,99067.25
2022-10-09T11:33:28.902Z,99061.00
2022-10-09T11:36:23.330Z,99066.72
2022-10-09T11:39:12.785Z,99059.09
2022-10-09T11:41:40.493Z,99059.66
2022-10-09T11:44:26.198Z,99069.69
2022-10-09T11:47:22.064Z,99059.75
2022-10-09T11:49:57.928Z,99067.47
2022-10-09T11:52:27.792Z,99061.50
2022-10-09T11:55:00.570Z,99060.88
2022-10-09T11:57:29.233Z,99074.16
2022-10-09T12:00:10.065Z,99071.13
2022-10-09T12:02:37.990Z,99064.09
2022-10-09T12:05:30.056Z,99082.19
2022-10-09T12:08:19.234Z,99082.41
2022-10-09T12:11:12.712Z,99084.16
2022-10-09T12:13:41.030Z,99079.00
2022-10-09T12:19:37.189Z,99077.72
2022-10-09T12:22:07.958Z,99073.09
2022-10-09T12:24:44.828Z,99075.84
2022-10-09T12:27:31.505Z,99088.91
2022-10-09T12:30:14.286Z,99087.31
2022-10-09T12:33:08.740Z,99088.91
2022-10-09T12:35:38.274Z,99091.66
2022-10-09T12:38:27.255Z,99090.56
2022-10-09T12:40:57.240Z,99086.75
2022-10-09T12:49:23.288Z,99103.88
2022-10-09T12:51:56.379Z,99098.72
2022-10-09T12:54:25.356Z,99084.84
2022-10-09T12:56:54.750Z,99083.22
2022-10-09T12:59:24.990Z,99098.16
2022-10-09T13:01:56.285Z,99079.97
2022-10-09T13:04:34.151Z,99084.56
2022-10-09T13:07:09.073Z,99093.22
2022-10-09T13:09:39.705Z,99085.06
2022-10-09T13:12:10.549Z,99086.44
2022-10-09T13:15:00.553Z,99085.31
2022-10-09T13:17:40.367Z,99090.47
2022-10-09T13:20:30.286Z,99103.50
2022-10-09T13:23:00.394Z,99102.63
2022-10-09T13:25:33.010Z,99114.63
2022-10-09T13:28:00.171Z,99114.19
2022-10-09T13:30:29.003Z,99113.22
2022-10-09T13:32:56.495Z,99125.81
2022-10-09T13:35:23.393Z,99119.97
2022-10-09T13:37:50.634Z,99121.41
2022-10-09T13:40:20.933Z,99133.19
2022-10-09T13:42:56.992Z,99132.84
2022-10-09T13:45:24.132Z,99129.22
2022-10-09T13:47:51.872Z,99135.38
2022-10-09T13:50:22.042Z,99134.69
2022-10-09T13:52:49.242Z,99138.53
2022-10-09T13:55:16.327Z,99139.53
2022-10-09T13:57:44.742Z,99139.41
2022-10-09T14:00:13.874Z,99137.69
2022-10-09T14:02:45.201Z,99144.19
2022-10-09T14:05:14.759Z,99139.66
2022-10-09T14:07:41.979Z,99145.38
2022-10-09T14:10:09.543Z,99142.59
2022-10-09T14:12:36.835Z,99148.50
2022-10-09T14:15:11.499Z,99143.00
2022-10-09T14:17:38.587Z,99147.75
2022-10-09T14:20:06.765Z,99136.50
2022-10-09T14:22:33.691Z,99149.66
2022-10-09T14:25:00.735Z,99144.69
2022-10-09T14:27:27.668Z,99150.28
2022-10-09T14:29:57.298Z,99161.31
2022-10-09T14:32:24.509Z,99164.16
2022-10-09T14:34:56.477Z,99163.44
2022-10-09T14:37:40.441Z,99170.16
2022-10-09T14:40:10.468Z,99177.94
2022-10-09T14:42:38.929Z,99164.81
2022-10-09T14:45:12.349Z,99171.44
2022-10-09T14:47:40.775Z,99182.44
2022-10-09T14:50:12.326Z,99188.16
2022-10-09T14:52:39.689Z,99188.41
2022-10-09T14:55:09.936Z,99191.31
2022-10-09T14:57:38.419Z,99191.22
2022-10-09T15:00:10.157Z,99193.69
2022-10-09T15:02:37.501Z,99194.88
2022-10-09T15:05:05.833Z,99191.59
2022-10-09T15:07:33.862Z,99198.88
2022-10-09T15:10:00.807Z,99195.97
2022-10-09T15:12:27.711Z,99197.13
2022-10-09T15:14:54.725Z,99208.03
2022-10-09T15:17:22.599Z,99208.72
2022-10-09T15:19:49.773Z,99212.41
2022-10-09T15:22:20.380Z,99214.13
2022-10-09T15:24:48.022Z,99221.91
2022-10-09T15:27:14.992Z,99225.19
2022-10-09T15:29:41.942Z,99221.31
2022-10-09T15:32:11.039Z,99220.72
2022-10-09T15:34:41.118Z,99234.56
2022-10-09T15:37:11.950Z,99226.81
2022-10-09T15:39:39.529Z,99231.56
2022-10-09T15:42:09.006Z,99226.03
2022-10-09T15:44:41.926Z,99236.22
2022-10-09T15:47:08.980Z,99230.94
2022-10-09T15:49:40.907Z,99240.31
2022-10-09T15:52:08.140Z,99226.50
2022-10-09T15:54:35.542Z,99231.91
2022-10-09T15:57:02.620Z,99241.03
2022-10-09T15:59:31.768Z,99244.56
2022-10-09T16:01:58.895Z,99243.97
2022-10-09T16:04:28.607Z,99244.44
2022-10-09T16:06:55.684Z,99251.69
2022-10-09T16:09:24.860Z,99248.41
2022-10-09T16:11:51.695Z,99254.03
2022-10-09T16:14:20.063Z,99255.22
2022-10-09T16:16:52.707Z,99248.78
2022-10-09T16:19:39.168Z,99253.00
2022-10-09T16:22:09.232Z,99249.84
2022-10-09T16:24:41.327Z,99247.38
2022-10-09T16:27:11.828Z,99262.63
2022-10-09T16:29:40.090Z,99246.53
2022-10-09T16:32:07.017Z,99249.00
2022-10-09T16:34:35.740Z,99251.72
2022-10-09T16:37:02.751Z,99250.16
2022-10-09T16:39:32.907Z,99248.75
2022-10-09T16:42:03.837Z,99250.53
2022-10-09T16:44:31.597Z,99248.16
2022-10-09T16:47:02.205Z,99242.44
2022-10-09T16:49:29.283Z,99237.41
2022-10-09T16:51:56.335Z,99233.41
2022-10-09T16:54:26.159Z,99238.56
2022-10-09T16:56:53.155Z,99251.13
2022-10-09T17:02:09.223Z,99227.06
2022-10-09T17:04:48.105Z,99257.44
2022-10-09T17:07:20.554Z,99253.94
2022-10-09T17:10:00.430Z,99250.66
2022-10-09T17:12:28.878Z,99239.16
2022-10-09T17:15:16.423Z,99245.13
2022-10-09T17:17:43.741Z,99244.91
2022-10-09T17:20:11.008Z,99259.19
2022-10-09T17:22:40.574Z,99258.59
2022-10-09T17:25:16.415Z,99254.28
2022-10-09T17:27:54.506Z,99251.91
2022-10-09T17:30:25.843Z,99257.78
2022-10-09T17:32:57.065Z,99260.72
2022-10-09T17:38:06.355Z,99273.59
2022-10-09T17:40:37.944Z,99279.81
2022-10-09T17:43:07.312Z,99273.00
2022-10-09T17:45:44.256Z,99279.47
2022-10-09T17:48:12.020Z,99274.50
2022-10-09T17:50:40.458Z,99277.00
2022-10-09T17:53:12.356Z,99277.34
2022-10-09T17:55:39.526Z,99272.63
2022-10-09T17:58:08.747Z,99280.50
2022-10-09T18:00:39.367Z,99281.19
2022-10-09T18:03:07.209Z,99274.13
2022-10-09T18:05:47.182Z,99280.34
2022-10-09T18:08:17.397Z,99282.91
2022-10-09T18:10:44.708Z,99296.38
2022-10-09T18:13:11.763Z,99288.28
2022-10-09T18:15:41.279Z,99287.72
2022-10-09T18:18:09.986Z,99290.63
2022-10-09T18:20:39.300Z,99293.69
2022-10-09T18:25:57.434Z,99289.22
2022-10-09T18:30:56.314Z,99303.75
2022-10-09T18:33:23.820Z,99306.44
2022-10-09T18:35:50.936Z,99309.72
2022-10-09T18:38:17.844Z,99307.25
2022-10-09T18:40:49.172Z,99311.22
2022-10-09T18:43:24.775Z,99316.84
2022-10-09T18:45:51.947Z,99306.19
2022-10-09T18:48:23.315Z,99314.97
2022-10-09T18:51:19.205Z,99325.44
2022-10-09T18:53:51.963Z,99319.44
2022-10-09T18:56:24.289Z,99322.81
2022-10-09T18:58:52.406Z,99335.00
2022-10-09T19:01:19.880Z,99328.69
2022-10-09T19:03:49.944Z,99336.91
2022-10-09T19:06:18.608Z,99343.38
2022-10-09T19:08:46.360Z,99345.59
2022-10-09T19:11:14.761Z,99342.53
2022-10-09T19:16:37.753Z,99345.25
2022-10-09T19:19:06.300Z,99340.41
2022-10-09T19:21:33.635Z,99338.25
2022-10-09T19:24:06.372Z,99348.69
2022-10-09T19:26:39.821Z,99331.31
2022-10-09T19:29:10.930Z,99339.78
2022-10-09T19:31:42.390Z,99338.09
2022-10-09T19:34:14.461Z,99355.34
2022-10-09T19:36:43.264Z,99335.69
2022-10-09T19:39:11.254Z,99346.00
2022-10-09T19:41:39.051Z,99352.22
2022-10-09T19:44:06.021Z,99351.19
2022-10-09T19:46:32.891Z,99358.78
2022-10-09T19:49:02.714Z,99357.50
2022-10-09T19:51:29.972Z,99361.16
2022-10-09T19:53:58.917Z,99352.72
2022-10-09T19:56:51.738Z,99353.53
2022-10-09T19:59:18.818Z,99352.38
2022-10-09T20:01:56.660Z,99345.31
2022-10-09T20:04:29.687Z,99345.44
2022-10-09T20:07:01.942Z,99348.69
2022-10-09T20:09:29.047Z,99343.78
2022-10-09T20:11:56.056Z,99367.81
2022-10-09T20:14:22.952Z,99364.78
2022-10-09T20:16:49.968Z,99365.84
2022-10-09T20:19:16.936Z,99362.75
2022-10-09T20:21:43.891Z,99360.88
2022-10-09T20:24:10.784Z,99357.38
2022-10-09T20:26:42.211Z,99359.84
2022-10-09T20:29:10.035Z,99356.34
2022-10-09T20:31:37.056Z,99350.56
2022-10-09T20:34:04.082Z,99352.66
2022-10-09T20:36:35.493Z,99354.53
2022-10-09T20:39:13.202Z,99353.06
2022-10-09T20:41:41.684Z,99362.16
2022-10-09T20:44:09.027Z,99361.81
2022-10-09T20:46:38.095Z,99354.94
2022-10-09T20:49:07.189Z,99359.47
2022-10-09T20:51:38.404Z,99356.88
2022-10-09T20:54:06.910Z,99363.69
2022-10-09T20:56:34.407Z,99366.97
2022-10-09T20:59:01.570Z,99363.22
2022-10-09T21:01:29.093Z,99361.13
2022-10-09T21:03:57.216Z,99368.16
2022-10-09T21:06:24.188Z,99361.13
2022-10-09T21:08:51.140Z,99356.34
2022-10-09T21:11:19.093Z,99357.75
2022-10-09T21:13:46.339Z,99362.56
2022-10-09T21:16:15.667Z,99353.66
2022-10-09T21:18:42.789Z,99358.19
2022-10-09T21:21:12.641Z,99356.09
2022-10-09T21:23:40.403Z,99360.88
2022-10-09T21:26:12.417Z,99367.13
2022-10-09T21:28:39.838Z,99373.31
2022-10-09T21:31:11.941Z,99373.31
2022-10-09T21:33:38.938Z,99371.09
2022-10-09T21:36:30.573Z,99376.47
2022-10-09T21:38:58.295Z,99383.00
2022-10-09T21:41:25.354Z,99382.41
2022-10-09T21:43:52.396Z,99379.03
2022-10-09T21:46:24.643Z,99384.63
2022-10-09T21:48:51.631Z,99386.97
2022-10-09T21:51:18.740Z,99392.44
2022-10-09T21:53:45.813Z,99397.47
2022-10-09T21:56:12.828Z,99402.44
2022-10-09T21:58:41.430Z,99395.66
2022-10-09T22:01:17.212Z,99396.72
2022-10-09T22:03:47.488Z,99403.72
2022-10-09T22:06:19.224Z,99400.00
2022-10-09T22:08:48.074Z,99411.94
2022-10-09T22:11:15.707Z,99413.00
2022-10-09T22:13:42.725Z,99403.28
2022-10-09T22:16:12.354Z,99409.13
2022-10-09T22:18:39.279Z,99407.47
2022-10-09T22:21:08.724Z,99410.78
2022-10-09T22:23:36.378Z,99423.03
2022-10-09T22:26:06.413Z,99432.75
2022-10-09T22:28:34.151Z,99431.09
2022-10-09T22:31:08.482Z,99433.19
2022-10-09T22:33:36.548Z,99440.44
2022-10-09T22:36:10.424Z,99437.97
2022-10-09T22:38:40.593Z,99444.41
2022-10-09T22:41:11.772Z,99451.06
2022-10-09T22:43:39.952Z,99448.59
2022-10-09T22:46:11.660Z,99448.84
2022-10-09T22:48:39.258Z,99451.72
2022-10-09T22:51:08.094Z,99455.09
2022-10-09T22:53:35.715Z,99455.53
2022-10-09T22:56:07.620Z,99461.09
2022-10-09T22:58:34.795Z,99470.88
2022-10-09T23:01:08.688Z,99463.25
2022-10-09T23:03:36.526Z,99466.75
2022-10-09T23:06:07.966Z,99471.91
2022-10-09T23:08:34.991Z,99473.16
2022-10-09T23:11:01.850Z,99464.72
2022-10-09T23:13:28.901Z,99467.06
2022-10-09T23:15:55.851Z,99466.19
2022-10-09T23:18:22.714Z,99466.66
2022-10-09T23:20:49.633Z,99471.59
2022-10-09T23:23:16.743Z,99467.72
2022-10-09T23:25:43.848Z,99470.41
2022-10-09T23:28:13.824Z,99477.88
2022-10-09T23:30:42.846Z,99480.75
2022-10-09T23:33:09.735Z,99481.59
2022-10-09T23:35:41.056Z,99483.03
2022-10-09T23:38:08.290Z,99483.25
2022-10-09T23:40:35.281Z,99482.44
2022-10-09T23:43:02.265Z,99490.72
2022-10-09T23:45:29.252Z,99497.97
2022-10-09T23:47:56.207Z,99496.31
2022-10-09T23:50:23.135Z,99506.84
2022-10-09T23:52:50.426Z,99501.91
2022-10-09T23:55:17.523Z,99498.16
2022-10-09T23:57:44.349Z,99496.53
